sensor_id;sensor_type;location;lat;lon;timestamp;pressure;altitude;pressure_sealevel;temperature;humidity
77077;BME280;66003;52.286;104.306;2024-03-25T00:00:12;96601.19;;;2.93;25.37
77077;BME280;66003;52.286;104.306;2024-03-25T00:02:39;96605.16;;;4.10;25.21
77077;BME280;66003;52.286;104.306;2024-03-25T00:05:07;96601.66;;;5.56;24.02
77077;BME280;66003;52.286;104.306;2024-03-25T00:07:37;96599.41;;;7.18;23.51
77077;BME280;66003;52.286;104.306;2024-03-25T00:10:03;96602.09;;;8.91;22.57
77077;BME280;66003;52.286;104.306;2024-03-25T00:12:32;96604.00;;;9.44;20.67
77077;BME280;66003;52.286;104.306;2024-03-25T00:14:58;96608.53;;;9.04;20.84
77077;BME280;66003;52.286;104.306;2024-03-25T00:17:24;96607.25;;;9.01;19.41
77077;BME280;66003;52.286;104.306;2024-03-25T00:19:50;96601.75;;;9.99;20.92
77077;BME280;66003;52.286;104.306;2024-03-25T00:22:20;96597.38;;;10.55;19.32
77077;BME280;66003;52.286;104.306;2024-03-25T00:24:47;96592.47;;;10.83;17.80
77077;BME280;66003;52.286;104.306;2024-03-25T00:27:14;96598.84;;;11.13;17.62
77077;BME280;66003;52.286;104.306;2024-03-25T00:29:41;96608.97;;;11.33;17.36
77077;BME280;66003;52.286;104.306;2024-03-25T00:32:07;96601.66;;;11.89;18.55
77077;BME280;66003;52.286;104.306;2024-03-25T00:34:34;96607.16;;;12.01;17.37
77077;BME280;66003;52.286;104.306;2024-03-25T00:37:00;96609.63;;;12.23;17.61
77077;BME280;66003;52.286;104.306;2024-03-25T00:39:27;96613.47;;;12.13;17.50
77077;BME280;66003;52.286;104.306;2024-03-25T00:41:54;96621.13;;;11.82;17.97
77077;BME280;66003;52.286;104.306;2024-03-25T00:44:21;96624.34;;;11.67;17.10
77077;BME280;66003;52.286;104.306;2024-03-25T00:46:47;96620.47;;;12.23;16.74
77077;BME280;66003;52.286;104.306;2024-03-25T00:49:13;96615.41;;;13.59;16.16
77077;BME280;66003;52.286;104.306;2024-03-25T00:51:39;96614.34;;;14.57;15.72
77077;BME280;66003;52.286;104.306;2024-03-25T00:54:05;96616.41;;;15.28;15.10
77077;BME280;66003;52.286;104.306;2024-03-25T00:56:32;96618.41;;;16.37;14.74
77077;BME280;66003;52.286;104.306;2024-03-25T00:58:58;96614.19;;;16.91;13.47
77077;BME280;66003;52.286;104.306;2024-03-25T01:01:32;96617.69;;;17.49;12.79
77077;BME280;66003;52.286;104.306;2024-03-25T01:04:02;96620.72;;;18.32;13.02
77077;BME280;66003;52.286;104.306;2024-03-25T01:06:28;96621.72;;;18.73;12.52
77077;BME280;66003;52.286;104.306;2024-03-25T01:08:55;96606.34;;;19.58;11.98
77077;BME280;66003;52.286;104.306;2024-03-25T01:11:22;96609.63;;;20.62;11.53
77077;BME280;66003;52.286;104.306;2024-03-25T01:13:48;96610.44;;;21.46;10.71
77077;BME280;66003;52.286;104.306;2024-03-25T01:16:15;96616.03;;;21.92;10.40
77077;BME280;66003;52.286;104.306;2024-03-25T01:18:41;96617.25;;;22.27;10.80
77077;BME280;66003;52.286;104.306;2024-03-25T01:21:07;96617.63;;;22.04;10.48
77077;BME280;66003;52.286;104.306;2024-03-25T01:23:33;96610.06;;;21.58;10.58
77077;BME280;66003;52.286;104.306;2024-03-25T01:25:59;96609.13;;;21.15;10.90
77077;BME280;66003;52.286;104.306;2024-03-25T01:28:26;96613.91;;;20.56;10.62
77077;BME280;66003;52.286;104.306;2024-03-25T01:30:53;96619.47;;;20.67;10.77
77077;BME280;66003;52.286;104.306;2024-03-25T01:33:19;96609.66;;;21.49;10.86
77077;BME280;66003;52.286;104.306;2024-03-25T01:35:46;96607.41;;;22.29;10.12
77077;BME280;66003;52.286;104.306;2024-03-25T01:38:12;96614.31;;;23.26;9.53
77077;BME280;66003;52.286;104.306;2024-03-25T01:40:38;96600.59;;;24.40;9.48
77077;BME280;66003;52.286;104.306;2024-03-25T01:43:05;96612.06;;;25.17;8.94
77077;BME280;66003;52.286;104.306;2024-03-25T01:45:33;96621.25;;;25.75;8.68
77077;BME280;66003;52.286;104.306;2024-03-25T01:48:03;96610.47;;;26.34;8.74
77077;BME280;66003;52.286;104.306;2024-03-25T01:50:34;96606.06;;;26.84;7.79
77077;BME280;66003;52.286;104.306;2024-03-25T01:53:02;96614.34;;;27.27;7.99
77077;BME280;66003;52.286;104.306;2024-03-25T01:55:30;96608.41;;;27.64;8.05
77077;BME280;66003;52.286;104.306;2024-03-25T01:57:58;96606.81;;;27.83;7.98
77077;BME280;66003;52.286;104.306;2024-03-25T02:00:25;96610.59;;;28.25;7.51
77077;BME280;66003;52.286;104.306;2024-03-25T02:02:53;96595.03;;;28.44;7.96
77077;BME280;66003;52.286;104.306;2024-03-25T02:05:20;96603.88;;;28.55;7.55
77077;BME280;66003;52.286;104.306;2024-03-25T02:07:47;96599.53;;;28.87;7.76
77077;BME280;66003;52.286;104.306;2024-03-25T02:10:15;96599.41;;;28.90;7.31
77077;BME280;66003;52.286;104.306;2024-03-25T02:12:43;96601.31;;;28.93;7.73
77077;BME280;66003;52.286;104.306;2024-03-25T02:15:11;96596.56;;;28.77;7.13
77077;BME280;66003;52.286;104.306;2024-03-25T02:17:38;96600.25;;;28.58;7.15
77077;BME280;66003;52.286;104.306;2024-03-25T02:20:04;96606.59;;;28.75;7.11
77077;BME280;66003;52.286;104.306;2024-03-25T02:22:33;96597.00;;;28.76;7.27
77077;BME280;66003;52.286;104.306;2024-03-25T02:25:00;96592.31;;;28.57;7.43
77077;BME280;66003;52.286;104.306;2024-03-25T02:27:27;96592.47;;;28.82;7.17
77077;BME280;66003;52.286;104.306;2024-03-25T02:30:09;96588.56;;;29.37;6.69
77077;BME280;66003;52.286;104.306;2024-03-25T02:32:38;96588.81;;;28.85;7.12
77077;BME280;66003;52.286;104.306;2024-03-25T02:35:12;96583.28;;;28.69;6.48
77077;BME280;66003;52.286;104.306;2024-03-25T02:37:41;96581.56;;;28.42;6.97
77077;BME280;66003;52.286;104.306;2024-03-25T02:40:09;96579.06;;;28.32;7.09
77077;BME280;66003;52.286;104.306;2024-03-25T02:42:36;96586.69;;;27.95;7.21
77077;BME280;66003;52.286;104.306;2024-03-25T02:45:03;96583.19;;;26.33;7.30
77077;BME280;66003;52.286;104.306;2024-03-25T02:47:31;96586.50;;;22.96;9.08
77077;BME280;66003;52.286;104.306;2024-03-25T02:49:58;96589.88;;;19.95;10.17
77077;BME280;66003;52.286;104.306;2024-03-25T02:52:24;96579.53;;;17.75;11.09
77077;BME280;66003;52.286;104.306;2024-03-25T02:54:50;96579.91;;;16.93;11.74
77077;BME280;66003;52.286;104.306;2024-03-25T02:57:17;96574.50;;;18.00;11.12
77077;BME280;66003;52.286;104.306;2024-03-25T02:59:43;96574.50;;;19.43;10.32
77077;BME280;66003;52.286;104.306;2024-03-25T03:02:09;96576.72;;;19.71;10.02
77077;BME280;66003;52.286;104.306;2024-03-25T03:04:35;96573.28;;;18.77;10.54
77077;BME280;66003;52.286;104.306;2024-03-25T03:07:02;96574.66;;;17.04;11.46
77077;BME280;66003;52.286;104.306;2024-03-25T03:09:28;96572.72;;;15.52;12.35
77077;BME280;66003;52.286;104.306;2024-03-25T03:11:54;96561.75;;;14.53;13.32
77077;BME280;66003;52.286;104.306;2024-03-25T03:14:21;96567.78;;;13.73;13.88
77077;BME280;66003;52.286;104.306;2024-03-25T03:16:47;96561.31;;;13.20;14.24
77077;BME280;66003;52.286;104.306;2024-03-25T03:19:13;96564.47;;;13.10;14.95
77077;BME280;66003;52.286;104.306;2024-03-25T03:21:39;96547.75;;;12.25;14.97
77077;BME280;66003;52.286;104.306;2024-03-25T03:24:05;96537.13;;;12.20;15.02
77077;BME280;66003;52.286;104.306;2024-03-25T03:26:32;96539.50;;;11.63;15.19
77077;BME280;66003;52.286;104.306;2024-03-25T03:28:58;96537.69;;;11.20;15.80
77077;BME280;66003;52.286;104.306;2024-03-25T03:31:25;96535.69;;;10.83;15.75
77077;BME280;66003;52.286;104.306;2024-03-25T03:33:52;96527.44;;;10.62;16.08
77077;BME280;66003;52.286;104.306;2024-03-25T03:36:21;96529.97;;;10.50;16.58
77077;BME280;66003;52.286;104.306;2024-03-25T03:38:50;96518.06;;;10.42;16.45
77077;BME280;66003;52.286;104.306;2024-03-25T03:41:17;96521.72;;;10.20;16.61
77077;BME280;66003;52.286;104.306;2024-03-25T03:43:45;96516.47;;;10.07;16.63
77077;BME280;66003;52.286;104.306;2024-03-25T03:46:11;96522.78;;;9.93;16.47
77077;BME280;66003;52.286;104.306;2024-03-25T03:48:38;96510.97;;;9.64;16.59
77077;BME280;66003;52.286;104.306;2024-03-25T03:51:08;96507.09;;;9.56;16.91
77077;BME280;66003;52.286;104.306;2024-03-25T03:53:35;96507.19;;;9.42;16.69
77077;BME280;66003;52.286;104.306;2024-03-25T03:56:03;96498.59;;;9.32;16.88
77077;BME280;66003;52.286;104.306;2024-03-25T03:58:33;96493.03;;;9.28;16.86
77077;BME280;66003;52.286;104.306;2024-03-25T04:00:59;96498.59;;;9.63;17.24
77077;BME280;66003;52.286;104.306;2024-03-25T04:03:26;96498.38;;;9.50;17.00
77077;BME280;66003;52.286;104.306;2024-03-25T04:05:52;96492.97;;;9.50;16.86
77077;BME280;66003;52.286;104.306;2024-03-25T04:08:18;96485.03;;;9.54;17.13
77077;BME280;66003;52.286;104.306;2024-03-25T04:10:45;96483.09;;;9.46;16.98
77077;BME280;66003;52.286;104.306;2024-03-25T04:13:12;96482.31;;;9.45;17.42
77077;BME280;66003;52.286;104.306;2024-03-25T04:15:40;96474.69;;;9.47;16.94
77077;BME280;66003;52.286;104.306;2024-03-25T04:18:08;96479.31;;;9.55;17.13
77077;BME280;66003;52.286;104.306;2024-03-25T04:20:41;96467.59;;;9.60;17.41
77077;BME280;66003;52.286;104.306;2024-03-25T04:23:08;96457.72;;;9.55;17.02
77077;BME280;66003;52.286;104.306;2024-03-25T04:25:34;96454.31;;;9.81;17.10
77077;BME280;66003;52.286;104.306;2024-03-25T04:28:04;96449.06;;;9.67;16.63
77077;BME280;66003;52.286;104.306;2024-03-25T04:30:32;96449.06;;;9.67;17.11
77077;BME280;66003;52.286;104.306;2024-03-25T04:33:00;96454.63;;;9.71;16.60
77077;BME280;66003;52.286;104.306;2024-03-25T04:35:26;96442.88;;;9.67;16.88
77077;BME280;66003;52.286;104.306;2024-03-25T04:37:53;96443.22;;;9.74;16.49
77077;BME280;66003;52.286;104.306;2024-03-25T04:40:21;96436.84;;;9.70;16.98
77077;BME280;66003;52.286;104.306;2024-03-25T04:42:47;96430.19;;;10.02;16.58
77077;BME280;66003;52.286;104.306;2024-03-25T04:45:13;96428.31;;;9.85;16.83
77077;BME280;66003;52.286;104.306;2024-03-25T04:47:39;96427.97;;;9.95;16.56
77077;BME280;66003;52.286;104.306;2024-03-25T04:50:06;96421.63;;;9.91;16.64
77077;BME280;66003;52.286;104.306;2024-03-25T04:52:33;96420.16;;;9.76;16.69
77077;BME280;66003;52.286;104.306;2024-03-25T04:54:59;96417.66;;;9.80;16.46
77077;BME280;66003;52.286;104.306;2024-03-25T04:57:25;96412.72;;;9.90;16.69
77077;BME280;66003;52.286;104.306;2024-03-25T04:59:51;96413.38;;;9.96;16.65
77077;BME280;66003;52.286;104.306;2024-03-25T05:02:18;96399.38;;;10.03;16.32
77077;BME280;66003;52.286;104.306;2024-03-25T05:04:44;96411.63;;;10.09;16.31
77077;BME280;66003;52.286;104.306;2024-03-25T05:07:10;96400.66;;;10.05;16.34
77077;BME280;66003;52.286;104.306;2024-03-25T05:09:37;96388.44;;;9.99;16.53
77077;BME280;66003;52.286;104.306;2024-03-25T05:12:03;96386.38;;;9.96;16.36
77077;BME280;66003;52.286;104.306;2024-03-25T05:14:29;96393.03;;;10.07;16.48
77077;BME280;66003;52.286;104.306;2024-03-25T05:16:55;96385.56;;;10.13;16.34
77077;BME280;66003;52.286;104.306;2024-03-25T05:19:22;96374.13;;;10.16;16.53
77077;BME280;66003;52.286;104.306;2024-03-25T05:21:49;96374.91;;;10.16;16.32
77077;BME280;66003;52.286;104.306;2024-03-25T05:24:15;96379.81;;;10.23;16.51
77077;BME280;66003;52.286;104.306;2024-03-25T05:26:41;96364.28;;;10.20;15.86
77077;BME280;66003;52.286;104.306;2024-03-25T05:29:07;96364.13;;;10.16;15.75
77077;BME280;66003;52.286;104.306;2024-03-25T05:31:34;96363.31;;;10.16;15.89
77077;BME280;66003;52.286;104.306;2024-03-25T05:34:00;96347.75;;;10.21;16.03
77077;BME280;66003;52.286;104.306;2024-03-25T05:36:28;96340.75;;;10.29;16.06
77077;BME280;66003;52.286;104.306;2024-03-25T05:38:54;96338.81;;;10.38;16.09
77077;BME280;66003;52.286;104.306;2024-03-25T05:41:22;96332.13;;;10.44;15.70
77077;BME280;66003;52.286;104.306;2024-03-25T05:43:48;96328.78;;;10.39;15.74
77077;BME280;66003;52.286;104.306;2024-03-25T05:46:15;96320.19;;;10.45;15.80
77077;BME280;66003;52.286;104.306;2024-03-25T05:48:41;96317.22;;;10.29;15.61
77077;BME280;66003;52.286;104.306;2024-03-25T05:51:07;96317.25;;;10.21;15.06
77077;BME280;66003;52.286;104.306;2024-03-25T05:53:33;96309.97;;;10.04;15.03
77077;BME280;66003;52.286;104.306;2024-03-25T05:56:00;96311.25;;;10.07;15.27
77077;BME280;66003;52.286;104.306;2024-03-25T05:58:26;96289.63;;;10.07;15.17
77077;BME280;66003;52.286;104.306;2024-03-25T06:00:53;96290.59;;;10.11;15.14
77077;BME280;66003;52.286;104.306;2024-03-25T06:03:19;96282.03;;;10.47;15.03
77077;BME280;66003;52.286;104.306;2024-03-25T06:05:45;96275.75;;;10.34;15.20
77077;BME280;66003;52.286;104.306;2024-03-25T06:08:12;96272.25;;;10.33;14.74
77077;BME280;66003;52.286;104.306;2024-03-25T06:10:51;96267.91;;;10.41;15.24
77077;BME280;66003;52.286;104.306;2024-03-25T06:13:18;96264.75;;;10.39;14.62
77077;BME280;66003;52.286;104.306;2024-03-25T06:15:45;96260.75;;;10.45;14.77
77077;BME280;66003;52.286;104.306;2024-03-25T06:18:12;96265.19;;;10.50;14.68
77077;BME280;66003;52.286;104.306;2024-03-25T06:20:38;96260.47;;;10.76;14.89
77077;BME280;66003;52.286;104.306;2024-03-25T06:23:04;96258.97;;;10.58;14.66
77077;BME280;66003;52.286;104.306;2024-03-25T06:25:31;96259.28;;;10.56;14.77
77077;BME280;66003;52.286;104.306;2024-03-25T06:27:59;96251.03;;;10.53;14.96
77077;BME280;66003;52.286;104.306;2024-03-25T06:30:25;96250.38;;;10.56;15.06
77077;BME280;66003;52.286;104.306;2024-03-25T06:33:10;96243.19;;;10.30;15.13
77077;BME280;66003;52.286;104.306;2024-03-25T06:35:55;96240.63;;;10.34;15.29
77077;BME280;66003;52.286;104.306;2024-03-25T06:38:21;96240.47;;;10.30;14.65
77077;BME280;66003;52.286;104.306;2024-03-25T06:40:47;96231.53;;;10.39;14.62
77077;BME280;66003;52.286;104.306;2024-03-25T06:43:13;96224.38;;;10.43;14.63
77077;BME280;66003;52.286;104.306;2024-03-25T06:45:42;96222.59;;;10.47;14.71
77077;BME280;66003;52.286;104.306;2024-03-25T06:48:08;96227.06;;;10.43;14.50
77077;BME280;66003;52.286;104.306;2024-03-25T06:50:34;96215.94;;;10.44;14.67
77077;BME280;66003;52.286;104.306;2024-03-25T06:53:02;96214.53;;;10.38;14.83
77077;BME280;66003;52.286;104.306;2024-03-25T06:55:28;96205.63;;;10.46;14.58
77077;BME280;66003;52.286;104.306;2024-03-25T06:57:55;96209.13;;;10.38;14.56
77077;BME280;66003;52.286;104.306;2024-03-25T07:00:21;96205.13;;;10.44;14.74
77077;BME280;66003;52.286;104.306;2024-03-25T07:02:49;96205.63;;;10.46;14.29
77077;BME280;66003;52.286;104.306;2024-03-25T07:05:15;96199.41;;;10.46;14.32
77077;BME280;66003;52.286;104.306;2024-03-25T07:07:41;96187.63;;;10.50;14.21
77077;BME280;66003;52.286;104.306;2024-03-25T07:10:08;96178.38;;;10.51;14.21
77077;BME280;66003;52.286;104.306;2024-03-25T07:12:37;96182.28;;;10.62;14.73
77077;BME280;66003;52.286;104.306;2024-03-25T07:15:06;96179.44;;;10.59;14.39
77077;BME280;66003;52.286;104.306;2024-03-25T07:17:33;96178.53;;;10.55;14.67
77077;BME280;66003;52.286;104.306;2024-03-25T07:19:59;96177.81;;;10.46;14.24
77077;BME280;66003;52.286;104.306;2024-03-25T07:22:29;96168.06;;;10.53;14.53
77077;BME280;66003;52.286;104.306;2024-03-25T07:24:55;96172.34;;;10.54;14.33
77077;BME280;66003;52.286;104.306;2024-03-25T07:27:21;96161.69;;;10.58;14.26
77077;BME280;66003;52.286;104.306;2024-03-25T07:29:48;96161.97;;;10.65;14.21
77077;BME280;66003;52.286;104.306;2024-03-25T07:32:14;96156.88;;;10.63;14.67
77077;BME280;66003;52.286;104.306;2024-03-25T07:34:40;96150.84;;;10.66;14.28
77077;BME280;66003;52.286;104.306;2024-03-25T07:37:06;96152.81;;;10.78;14.83
77077;BME280;66003;52.286;104.306;2024-03-25T07:39:33;96153.94;;;10.77;14.50
77077;BME280;66003;52.286;104.306;2024-03-25T07:41:59;96143.38;;;10.84;14.53
77077;BME280;66003;52.286;104.306;2024-03-25T07:44:25;96136.53;;;10.66;14.33
77077;BME280;66003;52.286;104.306;2024-03-25T07:46:51;96138.69;;;10.73;14.44
77077;BME280;66003;52.286;104.306;2024-03-25T07:49:17;96138.03;;;10.76;14.42
77077;BME280;66003;52.286;104.306;2024-03-25T07:51:44;96135.94;;;10.81;14.71
77077;BME280;66003;52.286;104.306;2024-03-25T07:54:10;96129.06;;;10.84;14.56
77077;BME280;66003;52.286;104.306;2024-03-25T07:56:39;96131.69;;;10.72;14.68
77077;BME280;66003;52.286;104.306;2024-03-25T07:59:06;96123.41;;;10.77;14.03
77077;BME280;66003;52.286;104.306;2024-03-25T08:01:32;96123.88;;;10.79;14.70
77077;BME280;66003;52.286;104.306;2024-03-25T08:03:58;96116.56;;;10.79;14.43
77077;BME280;66003;52.286;104.306;2024-03-25T08:06:24;96119.03;;;10.84;14.05
77077;BME280;66003;52.286;104.306;2024-03-25T08:08:50;96112.19;;;10.87;14.26
77077;BME280;66003;52.286;104.306;2024-03-25T08:11:16;96100.88;;;10.93;14.26
77077;BME280;66003;52.286;104.306;2024-03-25T08:13:42;96105.59;;;10.96;13.95
77077;BME280;66003;52.286;104.306;2024-03-25T08:16:08;96105.25;;;10.98;14.26
77077;BME280;66003;52.286;104.306;2024-03-25T08:18:35;96099.28;;;10.92;13.62
77077;BME280;66003;52.286;104.306;2024-03-25T08:21:01;96100.88;;;10.93;13.96
77077;BME280;66003;52.286;104.306;2024-03-25T08:23:27;96091.38;;;11.20;14.21
77077;BME280;66003;52.286;104.306;2024-03-25T08:25:53;96086.94;;;11.03;13.96
77077;BME280;66003;52.286;104.306;2024-03-25T08:28:19;96094.25;;;11.03;13.89
77077;BME280;66003;52.286;104.306;2024-03-25T08:30:46;96089.31;;;11.05;14.04
77077;BME280;66003;52.286;104.306;2024-03-25T08:33:13;96081.38;;;11.00;14.30
77077;BME280;66003;52.286;104.306;2024-03-25T08:35:39;96067.72;;;10.96;15.01
77077;BME280;66003;52.286;104.306;2024-03-25T08:38:05;96066.84;;;10.92;15.30
77077;BME280;66003;52.286;104.306;2024-03-25T08:40:32;96063.00;;;10.93;15.71
77077;BME280;66003;52.286;104.306;2024-03-25T08:42:58;96066.16;;;10.95;15.03
77077;BME280;66003;52.286;104.306;2024-03-25T08:45:25;96056.59;;;10.98;14.84
77077;BME280;66003;52.286;104.306;2024-03-25T08:47:52;96062.16;;;10.81;15.41
77077;BME280;66003;52.286;104.306;2024-03-25T08:50:18;96064.72;;;10.77;15.49
77077;BME280;66003;52.286;104.306;2024-03-25T08:52:44;96051.50;;;10.63;15.42
77077;BME280;66003;52.286;104.306;2024-03-25T08:55:10;96057.34;;;10.65;15.66
77077;BME280;66003;52.286;104.306;2024-03-25T08:57:38;96057.34;;;10.65;15.77
77077;BME280;66003;52.286;104.306;2024-03-25T09:00:04;96059.19;;;10.53;15.62
77077;BME280;66003;52.286;104.306;2024-03-25T09:02:36;96030.47;;;10.69;15.70
77077;BME280;66003;52.286;104.306;2024-03-25T09:05:03;96048.22;;;10.49;15.99
77077;BME280;66003;52.286;104.306;2024-03-25T09:07:33;96043.22;;;10.39;15.98
77077;BME280;66003;52.286;104.306;2024-03-25T09:10:00;96046.47;;;10.32;16.20
77077;BME280;66003;52.286;104.306;2024-03-25T09:12:44;96036.63;;;10.28;15.49
77077;BME280;66003;52.286;104.306;2024-03-25T09:15:10;96034.00;;;10.19;15.91
77077;BME280;66003;52.286;104.306;2024-03-25T09:17:36;96035.69;;;10.24;15.95
77077;BME280;66003;52.286;104.306;2024-03-25T09:20:03;96039.72;;;10.18;16.02
77077;BME280;66003;52.286;104.306;2024-03-25T09:22:34;96032.59;;;10.13;16.13
77077;BME280;66003;52.286;104.306;2024-03-25T09:25:01;96031.56;;;10.06;16.11
77077;BME280;66003;52.286;104.306;2024-03-25T09:27:28;96035.44;;;10.17;16.14
77077;BME280;66003;52.286;104.306;2024-03-25T09:29:54;96034.06;;;10.11;15.57
77077;BME280;66003;52.286;104.306;2024-03-25T09:32:21;96022.81;;;10.09;15.90
77077;BME280;66003;52.286;104.306;2024-03-25T09:34:47;96024.63;;;9.96;15.96
77077;BME280;66003;52.286;104.306;2024-03-25T09:37:17;96016.31;;;10.01;16.15
77077;BME280;66003;52.286;104.306;2024-03-25T09:39:45;96011.94;;;9.88;16.48
77077;BME280;66003;52.286;104.306;2024-03-25T09:42:15;96006.56;;;9.88;16.26
77077;BME280;66003;52.286;104.306;2024-03-25T09:44:41;96009.25;;;9.88;16.55
77077;BME280;66003;52.286;104.306;2024-03-25T09:47:08;96004.25;;;9.78;16.28
77077;BME280;66003;52.286;104.306;2024-03-25T09:49:36;96008.72;;;9.74;16.19
77077;BME280;66003;52.286;104.306;2024-03-25T09:52:03;96007.66;;;9.57;16.21
77077;BME280;66003;52.286;104.306;2024-03-25T09:54:30;96004.91;;;9.75;16.10
77077;BME280;66003;52.286;104.306;2024-03-25T09:56:56;96008.91;;;9.60;16.39
77077;BME280;66003;52.286;104.306;2024-03-25T09:59:23;96000.53;;;9.53;16.57
77077;BME280;66003;52.286;104.306;2024-03-25T10:01:49;96002.25;;;9.57;16.25
77077;BME280;66003;52.286;104.306;2024-03-25T10:04:15;96000.09;;;9.51;16.82
77077;BME280;66003;52.286;104.306;2024-03-25T10:06:41;95993.13;;;9.41;16.41
77077;BME280;66003;52.286;104.306;2024-03-25T10:09:07;95996.50;;;9.30;16.54
77077;BME280;66003;52.286;104.306;2024-03-25T10:11:34;95992.56;;;9.27;16.47
77077;BME280;66003;52.286;104.306;2024-03-25T10:14:03;95988.78;;;9.19;16.95
77077;BME280;66003;52.286;104.306;2024-03-25T10:16:30;95996.88;;;9.19;16.69
77077;BME280;66003;52.286;104.306;2024-03-25T10:18:57;95993.53;;;9.22;16.75
77077;BME280;66003;52.286;104.306;2024-03-25T10:21:23;95993.72;;;9.09;17.10
77077;BME280;66003;52.286;104.306;2024-03-25T10:23:49;95996.28;;;9.05;16.86
77077;BME280;66003;52.286;104.306;2024-03-25T10:26:26;95988.91;;;8.76;17.00
77077;BME280;66003;52.286;104.306;2024-03-25T10:29:05;95987.50;;;8.62;17.00
77077;BME280;66003;52.286;104.306;2024-03-25T10:31:36;95984.78;;;8.70;17.00
77077;BME280;66003;52.286;104.306;2024-03-25T10:34:02;95979.91;;;8.64;17.19
77077;BME280;66003;52.286;104.306;2024-03-25T10:36:30;95984.97;;;8.39;17.72
77077;BME280;66003;52.286;104.306;2024-03-25T10:39:01;95985.09;;;8.34;17.90
77077;BME280;66003;52.286;104.306;2024-03-25T10:41:29;95980.06;;;8.33;17.60
77077;BME280;66003;52.286;104.306;2024-03-25T10:44:00;95979.44;;;8.44;17.38
77077;BME280;66003;52.286;104.306;2024-03-25T10:46:29;95976.56;;;8.15;17.83
77077;BME280;66003;52.286;104.306;2024-03-25T10:49:47;95972.31;;;8.05;17.62
77077;BME280;66003;52.286;104.306;2024-03-25T10:51:53;95979.88;;;7.95;18.17
77077;BME280;66003;52.286;104.306;2024-03-25T10:54:22;95988.59;;;7.83;17.91
77077;BME280;66003;52.286;104.306;2024-03-25T10:56:49;95981.94;;;7.89;18.20
77077;BME280;66003;52.286;104.306;2024-03-25T10:59:18;95976.69;;;7.75;18.24
77077;BME280;66003;52.286;104.306;2024-03-25T11:01:46;95978.44;;;7.63;18.40
77077;BME280;66003;52.286;104.306;2024-03-25T11:04:13;95973.50;;;7.56;18.01
77077;BME280;66003;52.286;104.306;2024-03-25T11:06:39;95974.56;;;7.47;18.40
77077;BME280;66003;52.286;104.306;2024-03-25T11:09:06;95973.25;;;7.35;18.54
77077;BME280;66003;52.286;104.306;2024-03-25T11:11:35;95973.69;;;7.29;18.49
77077;BME280;66003;52.286;104.306;2024-03-25T11:14:04;95979.81;;;7.21;18.70
77077;BME280;66003;52.286;104.306;2024-03-25T11:16:31;95976.13;;;7.08;18.49
77077;BME280;66003;52.286;104.306;2024-03-25T11:19:02;95978.84;;;7.17;18.27
77077;BME280;66003;52.286;104.306;2024-03-25T11:21:28;95973.41;;;6.99;18.77
77077;BME280;66003;52.286;104.306;2024-03-25T11:23:54;95969.94;;;6.99;18.20
77077;BME280;66003;52.286;104.306;2024-03-25T11:26:23;95979.22;;;6.93;18.67
77077;BME280;66003;52.286;104.306;2024-03-25T11:28:50;95968.44;;;6.84;18.24
77077;BME280;66003;52.286;104.306;2024-03-25T11:31:21;95977.81;;;6.64;18.57
77077;BME280;66003;52.286;104.306;2024-03-25T11:33:50;95981.91;;;6.62;18.84
77077;BME280;66003;52.286;104.306;2024-03-25T11:36:16;95975.56;;;6.58;19.00
77077;BME280;66003;52.286;104.306;2024-03-25T11:38:57;95978.31;;;6.66;18.95
77077;BME280;66003;52.286;104.306;2024-03-25T11:41:24;95979.34;;;6.57;18.86
77077;BME280;66003;52.286;104.306;2024-03-25T11:43:50;95983.38;;;6.46;18.75
77077;BME280;66003;52.286;104.306;2024-03-25T11:46:20;95983.31;;;6.37;19.09
77077;BME280;66003;52.286;104.306;2024-03-25T11:48:46;95978.28;;;6.22;19.15
77077;BME280;66003;52.286;104.306;2024-03-25T11:51:16;95984.38;;;6.14;19.46
77077;BME280;66003;52.286;104.306;2024-03-25T11:53:43;95973.78;;;6.09;19.05
77077;BME280;66003;52.286;104.306;2024-03-25T11:56:11;95979.13;;;6.09;19.27
77077;BME280;66003;52.286;104.306;2024-03-25T11:58:38;95986.00;;;6.01;19.40
77077;BME280;66003;52.286;104.306;2024-03-25T12:01:04;95989.78;;;6.00;19.07
77077;BME280;66003;52.286;104.306;2024-03-25T12:03:33;95979.47;;;5.93;19.15
77077;BME280;66003;52.286;104.306;2024-03-25T12:05:59;95983.66;;;5.86;19.43
77077;BME280;66003;52.286;104.306;2024-03-25T12:08:27;95985.16;;;5.78;19.19
77077;BME280;66003;52.286;104.306;2024-03-25T12:10:55;95986.25;;;5.77;19.21
77077;BME280;66003;52.286;104.306;2024-03-25T12:13:40;95990.31;;;5.75;19.36
77077;BME280;66003;52.286;104.306;2024-03-25T12:16:09;95979.22;;;5.68;19.56
77077;BME280;66003;52.286;104.306;2024-03-25T12:18:36;95981.53;;;5.60;19.85
77077;BME280;66003;52.286;104.306;2024-03-25T12:21:06;95985.00;;;5.61;19.77
77077;BME280;66003;52.286;104.306;2024-03-25T12:23:33;95981.41;;;5.52;20.32
77077;BME280;66003;52.286;104.306;2024-03-25T12:26:01;95979.25;;;5.40;20.54
77077;BME280;66003;52.286;104.306;2024-03-25T12:28:28;95972.28;;;5.39;20.16
77077;BME280;66003;52.286;104.306;2024-03-25T12:30:55;95979.38;;;5.35;20.27
77077;BME280;66003;52.286;104.306;2024-03-25T12:33:23;95972.91;;;5.36;20.43
77077;BME280;66003;52.286;104.306;2024-03-25T12:35:52;95967.56;;;5.36;20.91
77077;BME280;66003;52.286;104.306;2024-03-25T12:38:30;95966.84;;;5.30;20.69
77077;BME280;66003;52.286;104.306;2024-03-25T12:41:11;95975.19;;;5.29;20.42
77077;BME280;66003;52.286;104.306;2024-03-25T12:43:48;95971.91;;;5.18;21.25
77077;BME280;66003;52.286;104.306;2024-03-25T12:46:16;95965.75;;;5.04;21.07